METAR UND TAF INFORMATION
METAR FOR EDDB
ADDS - METARS form results

(0218 UTC 15 October 2019)
Data provider http://aviationweather.gov/metar/data/
 
METAR text: EDDB 150150Z 10004KT CAVOK 13/12 Q1010 NOSIG
Conditions at: EDDB (BERLIN/SCHONEFEL, DE) observed 0150 UTC 15 October 2019
Temperature: 13.0°C (55°F)
Dewpoint: 12.0°C (54°F) [RH = 94%]
Pressure (altimeter): 29.82 inches Hg (1010.0 mb)
Winds: from the E (100 degrees) at 5 MPH (4 knots; 2.1 m/s)
Visibility: 6 or more miles (10+ km)
Ceiling: ceiling and visibility are OK
Clouds: unknown
Weather: no significant weather observed at this time

METAR text: EDDB 150120Z 11007KT CAVOK 13/13 Q1010 NOSIG
Conditions at: EDDB (BERLIN/SCHONEFEL, DE) observed 0120 UTC 15 October 2019
Temperature: 13.0°C (55°F)
Dewpoint: 13.0°C (55°F) [RH = 100%]
Pressure (altimeter): 29.82 inches Hg (1010.0 mb)
Winds: from the ESE (110 degrees) at 8 MPH (7 knots; 3.6 m/s)
Visibility: 6 or more miles (10+ km)
Ceiling: ceiling and visibility are OK
Clouds: unknown
Weather: no significant weather observed at this time

Forecast for: EDDB (BERLIN/SCHONEFEL, DE)
Text: TAF EDDB 142300Z 1500/1524 10004KT CAVOK
Forecast period: 0000 UTC 15 October 2019 to 0000 UTC 16 October 2019
Forecast type: FROM: standard forecast or significant change
Winds: from the E (100 degrees) at 5 MPH (4 knots; 2.1 m/s)
Visibility: 6 or more miles 10+ km)
Ceiling: unknown
Clouds: missing
Weather: NSW  (no significant weather)
Text: TEMPO 1504/1507 2500 BCFG
Forecast period: 0400 to 0700 UTC 15 October 2019
Forecast type: TEMPORARY: The following changes expected for less than half the time period
Visibility: 1.55 miles (2.49 km)
Ceiling: unknown
Clouds: missing
Weather: BCFG  (patches of fog)

 FLUGHAFENKARTE

 RUNWAY INFORMATION
Runway 07L Runway length 8891 ft Runway width 148 ft
Runway elevation 148 ft Runway displaced threshold 0 ft Runway heading 69
Runway 25R Runway length 8891 ft Runway width 148 ft
Runway elevation 145 ft Runway displaced threshold 0 ft Runway heading 249
Runway 07R Runway length 9843 ft Runway width 148 ft
Runway elevation 146 ft Runway displaced threshold 0 ft Runway heading 69
Runway 25L Runway length 9843 ft Runway width 148 ft
Runway elevation 155 ft Runway displaced threshold 0 ft Runway heading 249

 AIRPORT FREQUENCIES
Type AFIS Name BERLIN INF Frequency 132.65 MHZ
Type APP Name BERLIN ARR Frequency 119.625 MHZ
Type ATIS Name ATIS Frequency 124.95 MHZ
Type DEP Name BERLIN DEP Frequency 120.625 MHZ
Type DIR Name BERLIN DIR Frequency 136.1 MHZ
Type GND Name GND Frequency 121.6 MHZ
Type INFO Name INFO Frequency 122.7 MHZ
Type TWR Name TWR Frequency 120.025 MHZ

 AIRPORT NEAR NAVIGATION AIDS
Type DME Name Schonefeld Frequency 114400 KHZ
Type NDB Name Schonefeld Frequency 362 KHZ



Powered by Virtual Airlines Manager [v2.6.2]